This is the latest recevied weather packets stored in our database for station/object SP8AQK-13. If no packets are shown the sender has not sent any weather packets the latest 1 day(s).
| Time | Temp. | Humidity | Pressure | Rain* | Wind** | Luminosity | Snow |
|---|---|---|---|---|---|---|---|
| 1778094183 | 19.44° C | 51% | 1009.1 hPa | - | - | - | - |
| 1778090581 | 21.11° C | 48% | 1008.5 hPa | - | - | - | - |
| 1778085778 | 23.33° C | 42% | 1008 hPa | - | - | - | - |
| 1778084577 | 23.89° C | 41% | 1008.1 hPa | - | - | - | - |
| 1778080975 | 24.44° C | 38% | 1008.2 hPa | - | - | - | - |
| 1778076172 | 26.11° C | 37% | 1008 hPa | - | - | - | - |
| 1778071369 | 26.67° C | 37% | 1008.3 hPa | - | - | - | - |
| 1778067767 | 26.11° C | 38% | 1008.6 hPa | - | - | - | - |
| 1778066566 | 26.11° C | 36% | 1008.6 hPa | - | - | - | - |
| 1778060562 | 23.89° C | 38% | 1008.8 hPa | - | - | - | - |
| 1778058161 | 23.33° C | 40% | 1008.6 hPa | - | - | - | - |
| 1778056960 | 22.78° C | 41% | 1008.7 hPa | - | - | - | - |
| 1778052157 | 21.67° C | 43% | 1008.7 hPa | - | - | - | - |
| 1778048555 | 22.78° C | 42% | 1008.4 hPa | - | - | - | - |
| 1778044953 | 20° C | 45% | 1009.1 hPa | - | - | - | - |
| 1778043752 | 17.78° C | 49% | 1009.3 hPa | - | - | - | - |
| 1778042551 | 15.56° C | 52% | 1009.5 hPa | - | - | - | - |
| 1778040150 | 13.89° C | 52% | 1010 hPa | - | - | - | - |
| 1778038949 | 13.89° C | 51% | 1009.7 hPa | - | - | - | - |
| 1778037748 | 13.89° C | 50% | 1009.8 hPa | - | - | - | - |
| 1778036548 | 13.33° C | 52% | 1010.1 hPa | - | - | - | - |
| 1778035347 | 12.78° C | 52% | 1010 hPa | - | - | - | - |
| 1778034146 | 11.11° C | 58% | 1010.2 hPa | - | - | - | - |
| 1778031745 | 11.11° C | 59% | 1010.2 hPa | - | - | - | - |
| 1778030544 | 11.11° C | 59% | 1010.2 hPa | - | - | - | - |
* Rain since midnight (hover to see other rain measurements)
** Current wind speed in m/s (hover to see current wind gust speed)